sensor_id;sensor_type;location;lat;lon;timestamp;P1;durP1;ratioP1;P2;durP2;ratioP2
55633;SDS011;41504;53.162;6.788;2023-04-24T00:01:28;8.38;;;5.20;;
55633;SDS011;41504;53.162;6.788;2023-04-24T00:03:54;8.23;;;4.60;;
55633;SDS011;41504;53.162;6.788;2023-04-24T00:06:25;7.25;;;4.60;;
55633;SDS011;41504;53.162;6.788;2023-04-24T00:08:58;6.72;;;3.80;;
55633;SDS011;41504;53.162;6.788;2023-04-24T00:11:27;4.40;;;2.50;;
55633;SDS011;41504;53.162;6.788;2023-04-24T00:13:54;2.20;;;1.40;;
55633;SDS011;41504;53.162;6.788;2023-04-24T00:16:21;2.50;;;1.70;;
55633;SDS011;41504;53.162;6.788;2023-04-24T00:18:47;2.47;;;1.40;;
55633;SDS011;41504;53.162;6.788;2023-04-24T00:21:16;1.90;;;1.20;;
55633;SDS011;41504;53.162;6.788;2023-04-24T00:23:43;1.75;;;1.25;;
55633;SDS011;41504;53.162;6.788;2023-04-24T00:26:09;1.65;;;1.20;;
55633;SDS011;41504;53.162;6.788;2023-04-24T00:28:35;1.83;;;1.20;;
55633;SDS011;41504;53.162;6.788;2023-04-24T00:31:01;2.05;;;1.15;;
55633;SDS011;41504;53.162;6.788;2023-04-24T00:33:27;2.20;;;1.40;;
55633;SDS011;41504;53.162;6.788;2023-04-24T00:35:52;2.92;;;1.42;;
55633;SDS011;41504;53.162;6.788;2023-04-24T00:38:18;1.65;;;1.30;;
55633;SDS011;41504;53.162;6.788;2023-04-24T00:40:44;1.77;;;1.10;;
55633;SDS011;41504;53.162;6.788;2023-04-24T00:43:10;1.85;;;1.13;;
55633;SDS011;41504;53.162;6.788;2023-04-24T00:45:37;2.65;;;1.20;;
55633;SDS011;41504;53.162;6.788;2023-04-24T00:48:02;1.70;;;1.10;;
55633;SDS011;41504;53.162;6.788;2023-04-24T00:50:29;1.52;;;1.17;;
55633;SDS011;41504;53.162;6.788;2023-04-24T00:52:56;1.38;;;1.02;;
55633;SDS011;41504;53.162;6.788;2023-04-24T00:55:22;1.85;;;1.00;;
55633;SDS011;41504;53.162;6.788;2023-04-24T00:57:50;1.30;;;1.20;;
55633;SDS011;41504;53.162;6.788;2023-04-24T01:00:16;1.20;;;1.10;;
55633;SDS011;41504;53.162;6.788;2023-04-24T01:02:43;2.13;;;1.30;;
55633;SDS011;41504;53.162;6.788;2023-04-24T01:05:10;3.05;;;1.45;;
55633;SDS011;41504;53.162;6.788;2023-04-24T01:07:38;2.20;;;1.60;;
55633;SDS011;41504;53.162;6.788;2023-04-24T01:10:06;2.80;;;1.50;;
55633;SDS011;41504;53.162;6.788;2023-04-24T01:12:33;2.72;;;1.60;;
55633;SDS011;41504;53.162;6.788;2023-04-24T01:14:59;2.28;;;1.58;;
55633;SDS011;41504;53.162;6.788;2023-04-24T01:17:25;2.30;;;1.60;;
55633;SDS011;41504;53.162;6.788;2023-04-24T01:19:51;2.78;;;1.80;;
55633;SDS011;41504;53.162;6.788;2023-04-24T01:22:21;2.88;;;1.88;;
55633;SDS011;41504;53.162;6.788;2023-04-24T01:24:48;2.85;;;1.90;;
55633;SDS011;41504;53.162;6.788;2023-04-24T01:27:13;3.55;;;1.92;;
55633;SDS011;41504;53.162;6.788;2023-04-24T01:29:39;3.75;;;1.98;;
55633;SDS011;41504;53.162;6.788;2023-04-24T01:32:06;2.92;;;2.00;;
55633;SDS011;41504;53.162;6.788;2023-04-24T01:34:31;2.90;;;1.88;;
55633;SDS011;41504;53.162;6.788;2023-04-24T01:36:57;3.33;;;1.80;;
55633;SDS011;41504;53.162;6.788;2023-04-24T01:39:23;2.78;;;2.00;;
55633;SDS011;41504;53.162;6.788;2023-04-24T01:41:51;2.80;;;1.90;;
55633;SDS011;41504;53.162;6.788;2023-04-24T01:44:17;2.55;;;1.90;;
55633;SDS011;41504;53.162;6.788;2023-04-24T01:46:43;4.47;;;1.80;;
55633;SDS011;41504;53.162;6.788;2023-04-24T01:49:09;3.40;;;1.90;;
55633;SDS011;41504;53.162;6.788;2023-04-24T01:51:35;1.73;;;1.60;;
55633;SDS011;41504;53.162;6.788;2023-04-24T01:54:02;3.40;;;2.00;;
55633;SDS011;41504;53.162;6.788;2023-04-24T01:56:30;3.42;;;1.90;;
55633;SDS011;41504;53.162;6.788;2023-04-24T02:01:29;3.28;;;2.10;;
55633;SDS011;41504;53.162;6.788;2023-04-24T02:04:00;3.00;;;2.08;;
55633;SDS011;41504;53.162;6.788;2023-04-24T02:06:25;3.35;;;2.13;;
55633;SDS011;41504;53.162;6.788;2023-04-24T02:08:51;3.15;;;2.10;;
55633;SDS011;41504;53.162;6.788;2023-04-24T02:11:17;4.47;;;2.63;;
55633;SDS011;41504;53.162;6.788;2023-04-24T02:13:43;6.95;;;2.80;;
55633;SDS011;41504;53.162;6.788;2023-04-24T02:16:09;4.32;;;2.90;;
55633;SDS011;41504;53.162;6.788;2023-04-24T02:18:35;4.30;;;2.80;;
55633;SDS011;41504;53.162;6.788;2023-04-24T02:21:01;4.53;;;3.30;;
55633;SDS011;41504;53.162;6.788;2023-04-24T02:23:26;6.05;;;3.42;;
55633;SDS011;41504;53.162;6.788;2023-04-24T02:25:52;5.60;;;3.35;;
55633;SDS011;41504;53.162;6.788;2023-04-24T02:28:18;4.85;;;3.20;;
55633;SDS011;41504;53.162;6.788;2023-04-24T02:30:44;5.63;;;3.90;;
55633;SDS011;41504;53.162;6.788;2023-04-24T02:33:11;5.75;;;4.10;;
55633;SDS011;41504;53.162;6.788;2023-04-24T02:35:36;5.70;;;4.13;;
55633;SDS011;41504;53.162;6.788;2023-04-24T02:38:03;6.80;;;4.00;;
55633;SDS011;41504;53.162;6.788;2023-04-24T02:40:29;5.63;;;4.15;;
55633;SDS011;41504;53.162;6.788;2023-04-24T02:42:55;6.57;;;4.65;;
55633;SDS011;41504;53.162;6.788;2023-04-24T02:45:20;6.93;;;5.45;;
55633;SDS011;41504;53.162;6.788;2023-04-24T02:47:46;6.70;;;5.22;;
55633;SDS011;41504;53.162;6.788;2023-04-24T02:50:12;7.90;;;5.55;;
55633;SDS011;41504;53.162;6.788;2023-04-24T02:52:37;6.47;;;5.05;;
55633;SDS011;41504;53.162;6.788;2023-04-24T02:55:03;6.70;;;5.30;;
55633;SDS011;41504;53.162;6.788;2023-04-24T02:57:30;8.48;;;5.68;;
55633;SDS011;41504;53.162;6.788;2023-04-24T02:59:55;8.40;;;5.80;;
55633;SDS011;41504;53.162;6.788;2023-04-24T03:02:21;6.90;;;5.13;;
55633;SDS011;41504;53.162;6.788;2023-04-24T03:04:47;6.95;;;5.28;;
55633;SDS011;41504;53.162;6.788;2023-04-24T03:07:13;6.60;;;5.30;;
55633;SDS011;41504;53.162;6.788;2023-04-24T03:09:40;7.28;;;5.95;;
55633;SDS011;41504;53.162;6.788;2023-04-24T03:12:05;7.43;;;6.32;;
55633;SDS011;41504;53.162;6.788;2023-04-24T03:14:31;7.50;;;6.32;;
55633;SDS011;41504;53.162;6.788;2023-04-24T03:16:57;7.55;;;6.75;;
55633;SDS011;41504;53.162;6.788;2023-04-24T03:19:23;8.85;;;7.40;;
55633;SDS011;41504;53.162;6.788;2023-04-24T03:21:49;7.75;;;6.95;;
55633;SDS011;41504;53.162;6.788;2023-04-24T03:24:15;7.50;;;6.70;;
55633;SDS011;41504;53.162;6.788;2023-04-24T03:26:41;7.40;;;6.60;;
55633;SDS011;41504;53.162;6.788;2023-04-24T03:29:07;8.05;;;6.60;;
55633;SDS011;41504;53.162;6.788;2023-04-24T03:31:33;7.82;;;6.43;;
55633;SDS011;41504;53.162;6.788;2023-04-24T03:33:58;10.20;;;7.45;;
55633;SDS011;41504;53.162;6.788;2023-04-24T03:36:24;7.68;;;6.55;;
55633;SDS011;41504;53.162;6.788;2023-04-24T03:38:51;7.68;;;6.88;;
55633;SDS011;41504;53.162;6.788;2023-04-24T03:41:17;8.68;;;7.35;;
55633;SDS011;41504;53.162;6.788;2023-04-24T03:43:42;9.70;;;7.10;;
55633;SDS011;41504;53.162;6.788;2023-04-24T03:46:08;7.38;;;6.50;;
55633;SDS011;41504;53.162;6.788;2023-04-24T03:48:34;7.80;;;6.22;;
55633;SDS011;41504;53.162;6.788;2023-04-24T03:51:00;7.60;;;6.63;;
55633;SDS011;41504;53.162;6.788;2023-04-24T03:53:26;7.10;;;5.50;;
55633;SDS011;41504;53.162;6.788;2023-04-24T03:55:52;7.38;;;6.13;;
55633;SDS011;41504;53.162;6.788;2023-04-24T03:58:18;6.28;;;5.18;;
55633;SDS011;41504;53.162;6.788;2023-04-24T04:00:44;6.93;;;5.47;;
55633;SDS011;41504;53.162;6.788;2023-04-24T04:03:11;6.72;;;5.35;;
55633;SDS011;41504;53.162;6.788;2023-04-24T04:05:38;5.72;;;4.65;;
55633;SDS011;41504;53.162;6.788;2023-04-24T04:08:04;6.43;;;4.80;;
55633;SDS011;41504;53.162;6.788;2023-04-24T04:10:30;5.68;;;4.72;;
55633;SDS011;41504;53.162;6.788;2023-04-24T04:12:56;5.95;;;4.75;;
55633;SDS011;41504;53.162;6.788;2023-04-24T04:15:22;6.13;;;4.57;;
55633;SDS011;41504;53.162;6.788;2023-04-24T04:17:47;9.10;;;4.50;;
55633;SDS011;41504;53.162;6.788;2023-04-24T04:20:13;6.85;;;4.82;;
55633;SDS011;41504;53.162;6.788;2023-04-24T04:22:39;6.43;;;4.82;;
55633;SDS011;41504;53.162;6.788;2023-04-24T04:25:05;6.55;;;5.10;;
55633;SDS011;41504;53.162;6.788;2023-04-24T04:27:31;6.38;;;4.78;;
55633;SDS011;41504;53.162;6.788;2023-04-24T04:29:58;6.68;;;5.30;;
55633;SDS011;41504;53.162;6.788;2023-04-24T04:32:29;6.40;;;5.28;;
55633;SDS011;41504;53.162;6.788;2023-04-24T04:34:58;6.97;;;5.43;;
55633;SDS011;41504;53.162;6.788;2023-04-24T04:37:28;6.97;;;5.60;;
55633;SDS011;41504;53.162;6.788;2023-04-24T04:39:54;7.90;;;5.95;;
55633;SDS011;41504;53.162;6.788;2023-04-24T04:42:20;8.45;;;6.25;;
55633;SDS011;41504;53.162;6.788;2023-04-24T04:44:46;7.68;;;5.90;;
55633;SDS011;41504;53.162;6.788;2023-04-24T04:47:11;7.90;;;6.65;;
55633;SDS011;41504;53.162;6.788;2023-04-24T04:49:38;7.65;;;6.20;;
55633;SDS011;41504;53.162;6.788;2023-04-24T04:52:03;7.57;;;6.32;;
55633;SDS011;41504;53.162;6.788;2023-04-24T04:54:30;8.10;;;6.35;;
55633;SDS011;41504;53.162;6.788;2023-04-24T04:56:56;7.70;;;6.30;;
55633;SDS011;41504;53.162;6.788;2023-04-24T04:59:22;8.15;;;6.30;;
55633;SDS011;41504;53.162;6.788;2023-04-24T05:01:48;9.00;;;6.15;;
55633;SDS011;41504;53.162;6.788;2023-04-24T05:04:13;8.68;;;5.80;;
55633;SDS011;41504;53.162;6.788;2023-04-24T05:06:39;6.43;;;4.80;;
55633;SDS011;41504;53.162;6.788;2023-04-24T05:09:05;7.80;;;5.07;;
55633;SDS011;41504;53.162;6.788;2023-04-24T05:11:32;6.47;;;4.70;;
55633;SDS011;41504;53.162;6.788;2023-04-24T05:13:58;7.45;;;4.22;;
55633;SDS011;41504;53.162;6.788;2023-04-24T05:16:23;5.22;;;3.60;;
55633;SDS011;41504;53.162;6.788;2023-04-24T05:18:49;5.10;;;3.63;;
55633;SDS011;41504;53.162;6.788;2023-04-24T05:21:15;4.20;;;2.70;;
55633;SDS011;41504;53.162;6.788;2023-04-24T05:23:41;4.80;;;2.85;;
55633;SDS011;41504;53.162;6.788;2023-04-24T05:26:07;3.92;;;2.60;;
55633;SDS011;41504;53.162;6.788;2023-04-24T05:28:32;3.30;;;2.10;;
55633;SDS011;41504;53.162;6.788;2023-04-24T05:30:58;3.15;;;2.00;;
55633;SDS011;41504;53.162;6.788;2023-04-24T05:33:24;3.20;;;1.75;;
55633;SDS011;41504;53.162;6.788;2023-04-24T05:35:50;3.97;;;1.90;;
55633;SDS011;41504;53.162;6.788;2023-04-24T05:38:16;2.63;;;1.67;;
55633;SDS011;41504;53.162;6.788;2023-04-24T05:40:44;2.10;;;1.45;;
55633;SDS011;41504;53.162;6.788;2023-04-24T05:43:11;2.08;;;1.48;;
55633;SDS011;41504;53.162;6.788;2023-04-24T05:45:37;2.53;;;1.60;;
55633;SDS011;41504;53.162;6.788;2023-04-24T05:48:03;2.78;;;1.50;;
55633;SDS011;41504;53.162;6.788;2023-04-24T05:50:30;2.13;;;1.60;;
55633;SDS011;41504;53.162;6.788;2023-04-24T05:52:56;3.35;;;1.67;;
55633;SDS011;41504;53.162;6.788;2023-04-24T05:55:26;4.63;;;1.70;;
55633;SDS011;41504;53.162;6.788;2023-04-24T05:57:52;3.00;;;1.60;;
55633;SDS011;41504;53.162;6.788;2023-04-24T06:00:18;4.22;;;1.83;;
55633;SDS011;41504;53.162;6.788;2023-04-24T06:02:45;1.98;;;1.55;;
55633;SDS011;41504;53.162;6.788;2023-04-24T06:05:11;3.83;;;1.80;;
55633;SDS011;41504;53.162;6.788;2023-04-24T06:07:37;3.05;;;1.60;;
55633;SDS011;41504;53.162;6.788;2023-04-24T06:10:02;2.92;;;1.85;;
55633;SDS011;41504;53.162;6.788;2023-04-24T06:12:29;3.00;;;1.70;;
55633;SDS011;41504;53.162;6.788;2023-04-24T06:14:55;2.22;;;1.40;;
55633;SDS011;41504;53.162;6.788;2023-04-24T06:17:21;2.15;;;1.33;;
55633;SDS011;41504;53.162;6.788;2023-04-24T06:19:46;1.42;;;1.33;;
55633;SDS011;41504;53.162;6.788;2023-04-24T06:22:12;1.70;;;1.08;;
55633;SDS011;41504;53.162;6.788;2023-04-24T06:24:39;2.25;;;1.30;;
55633;SDS011;41504;53.162;6.788;2023-04-24T06:27:05;2.45;;;1.65;;
55633;SDS011;41504;53.162;6.788;2023-04-24T06:29:31;2.80;;;1.70;;
55633;SDS011;41504;53.162;6.788;2023-04-24T06:31:58;2.58;;;1.70;;
55633;SDS011;41504;53.162;6.788;2023-04-24T06:34:24;4.30;;;1.80;;
55633;SDS011;41504;53.162;6.788;2023-04-24T06:36:50;2.67;;;1.65;;
55633;SDS011;41504;53.162;6.788;2023-04-24T06:39:16;5.22;;;2.72;;
55633;SDS011;41504;53.162;6.788;2023-04-24T06:41:41;5.05;;;2.88;;
55633;SDS011;41504;53.162;6.788;2023-04-24T06:44:07;5.90;;;3.45;;
55633;SDS011;41504;53.162;6.788;2023-04-24T06:46:33;6.70;;;3.78;;
55633;SDS011;41504;53.162;6.788;2023-04-24T06:48:59;6.68;;;4.03;;
55633;SDS011;41504;53.162;6.788;2023-04-24T06:51:25;7.78;;;4.22;;
55633;SDS011;41504;53.162;6.788;2023-04-24T06:54:07;7.63;;;4.78;;
55633;SDS011;41504;53.162;6.788;2023-04-24T06:57:02;8.40;;;5.10;;
55633;SDS011;41504;53.162;6.788;2023-04-24T06:59:28;8.45;;;5.20;;
55633;SDS011;41504;53.162;6.788;2023-04-24T07:01:55;8.68;;;5.75;;
55633;SDS011;41504;53.162;6.788;2023-04-24T07:04:20;9.30;;;5.78;;
55633;SDS011;41504;53.162;6.788;2023-04-24T07:06:46;10.05;;;6.20;;
55633;SDS011;41504;53.162;6.788;2023-04-24T07:09:14;11.48;;;6.75;;
55633;SDS011;41504;53.162;6.788;2023-04-24T07:11:41;11.52;;;6.00;;
55633;SDS011;41504;53.162;6.788;2023-04-24T07:14:07;10.02;;;5.80;;
55633;SDS011;41504;53.162;6.788;2023-04-24T07:16:33;9.65;;;5.53;;
55633;SDS011;41504;53.162;6.788;2023-04-24T07:18:58;8.40;;;5.20;;
55633;SDS011;41504;53.162;6.788;2023-04-24T07:21:25;8.00;;;4.30;;
55633;SDS011;41504;53.162;6.788;2023-04-24T07:23:51;7.28;;;4.25;;
55633;SDS011;41504;53.162;6.788;2023-04-24T07:26:16;4.57;;;2.60;;
55633;SDS011;41504;53.162;6.788;2023-04-24T07:28:42;6.55;;;2.80;;
55633;SDS011;41504;53.162;6.788;2023-04-24T07:31:08;4.05;;;1.83;;
55633;SDS011;41504;53.162;6.788;2023-04-24T07:33:35;5.28;;;2.20;;
55633;SDS011;41504;53.162;6.788;2023-04-24T07:36:01;4.35;;;2.22;;
55633;SDS011;41504;53.162;6.788;2023-04-24T07:38:29;3.90;;;2.13;;
55633;SDS011;41504;53.162;6.788;2023-04-24T07:40:55;5.00;;;2.72;;
55633;SDS011;41504;53.162;6.788;2023-04-24T07:43:21;3.97;;;2.25;;
55633;SDS011;41504;53.162;6.788;2023-04-24T07:45:48;4.50;;;2.05;;
55633;SDS011;41504;53.162;6.788;2023-04-24T07:48:17;5.00;;;2.30;;
55633;SDS011;41504;53.162;6.788;2023-04-24T07:50:43;4.40;;;2.25;;
55633;SDS011;41504;53.162;6.788;2023-04-24T07:53:09;5.47;;;2.70;;
55633;SDS011;41504;53.162;6.788;2023-04-24T07:55:35;6.20;;;3.05;;
55633;SDS011;41504;53.162;6.788;2023-04-24T08:00:31;5.78;;;2.80;;
55633;SDS011;41504;53.162;6.788;2023-04-24T08:02:57;4.90;;;2.90;;
55633;SDS011;41504;53.162;6.788;2023-04-24T08:05:23;6.65;;;2.90;;
55633;SDS011;41504;53.162;6.788;2023-04-24T08:07:50;6.50;;;3.28;;
55633;SDS011;41504;53.162;6.788;2023-04-24T08:10:16;7.53;;;3.88;;
55633;SDS011;41504;53.162;6.788;2023-04-24T08:12:41;8.98;;;3.60;;
55633;SDS011;41504;53.162;6.788;2023-04-24T08:15:07;7.63;;;3.80;;
55633;SDS011;41504;53.162;6.788;2023-04-24T08:17:34;8.75;;;4.15;;
55633;SDS011;41504;53.162;6.788;2023-04-24T08:20:00;8.02;;;4.30;;
55633;SDS011;41504;53.162;6.788;2023-04-24T08:22:27;7.35;;;4.15;;
55633;SDS011;41504;53.162;6.788;2023-04-24T08:24:53;9.05;;;5.05;;
55633;SDS011;41504;53.162;6.788;2023-04-24T08:27:21;8.00;;;5.05;;
55633;SDS011;41504;53.162;6.788;2023-04-24T08:29:46;12.60;;;6.38;;
55633;SDS011;41504;53.162;6.788;2023-04-24T08:32:12;11.93;;;7.15;;
55633;SDS011;41504;53.162;6.788;2023-04-24T08:34:38;14.15;;;7.85;;
55633;SDS011;41504;53.162;6.788;2023-04-24T08:37:03;12.88;;;7.97;;
55633;SDS011;41504;53.162;6.788;2023-04-24T08:39:29;11.93;;;8.25;;
55633;SDS011;41504;53.162;6.788;2023-04-24T08:41:55;14.13;;;8.80;;
55633;SDS011;41504;53.162;6.788;2023-04-24T08:44:21;13.10;;;9.40;;
55633;SDS011;41504;53.162;6.788;2023-04-24T08:46:47;16.05;;;10.43;;
55633;SDS011;41504;53.162;6.788;2023-04-24T08:49:14;18.33;;;11.38;;
55633;SDS011;41504;53.162;6.788;2023-04-24T08:51:43;20.90;;;13.00;;
55633;SDS011;41504;53.162;6.788;2023-04-24T08:54:10;19.88;;;12.93;;
55633;SDS011;41504;53.162;6.788;2023-04-24T08:56:37;20.08;;;12.70;;
55633;SDS011;41504;53.162;6.788;2023-04-24T08:59:05;21.38;;;12.05;;
55633;SDS011;41504;53.162;6.788;2023-04-24T09:01:31;18.90;;;11.60;;
55633;SDS011;41504;53.162;6.788;2023-04-24T09:04:02;19.65;;;12.30;;
55633;SDS011;41504;53.162;6.788;2023-04-24T09:06:29;16.77;;;10.75;;
55633;SDS011;41504;53.162;6.788;2023-04-24T09:08:55;18.77;;;11.65;;
55633;SDS011;41504;53.162;6.788;2023-04-24T09:11:25;16.20;;;11.18;;
55633;SDS011;41504;53.162;6.788;2023-04-24T09:13:52;19.17;;;11.10;;
55633;SDS011;41504;53.162;6.788;2023-04-24T09:16:19;18.80;;;11.13;;
55633;SDS011;41504;53.162;6.788;2023-04-24T09:18:45;19.08;;;11.45;;
55633;SDS011;41504;53.162;6.788;2023-04-24T09:21:11;21.05;;;11.75;;
55633;SDS011;41504;53.162;6.788;2023-04-24T09:23:37;23.50;;;12.18;;
55633;SDS011;41504;53.162;6.788;2023-04-24T09:26:03;19.35;;;12.15;;
55633;SDS011;41504;53.162;6.788;2023-04-24T09:28:35;16.95;;;11.40;;
55633;SDS011;41504;53.162;6.788;2023-04-24T09:31:08;18.80;;;12.25;;
55633;SDS011;41504;53.162;6.788;2023-04-24T09:33:39;20.60;;;12.30;;
55633;SDS011;41504;53.162;6.788;2023-04-24T09:36:05;17.95;;;12.38;;
55633;SDS011;41504;53.162;6.788;2023-04-24T09:38:38;18.38;;;11.88;;
55633;SDS011;41504;53.162;6.788;2023-04-24T09:41:07;18.02;;;12.55;;
55633;SDS011;41504;53.162;6.788;2023-04-24T09:43:34;17.45;;;12.20;;
55633;SDS011;41504;53.162;6.788;2023-04-24T09:46:04;19.50;;;12.10;;
55633;SDS011;41504;53.162;6.788;2023-04-24T09:48:34;19.40;;;11.80;;
55633;SDS011;41504;53.162;6.788;2023-04-24T09:51:02;17.63;;;11.65;;
55633;SDS011;41504;53.162;6.788;2023-04-24T09:53:32;18.58;;;11.80;;
55633;SDS011;41504;53.162;6.788;2023-04-24T09:56:10;16.73;;;10.63;;
55633;SDS011;41504;53.162;6.788;2023-04-24T09:58:39;16.88;;;10.27;;
55633;SDS011;41504;53.162;6.788;2023-04-24T10:01:05;16.27;;;10.52;;
55633;SDS011;41504;53.162;6.788;2023-04-24T10:03:31;16.92;;;10.20;;
55633;SDS011;41504;53.162;6.788;2023-04-24T10:06:02;15.05;;;9.15;;
55633;SDS011;41504;53.162;6.788;2023-04-24T10:08:34;17.92;;;9.07;;
55633;SDS011;41504;53.162;6.788;2023-04-24T10:11:00;19.80;;;9.80;;
55633;SDS011;41504;53.162;6.788;2023-04-24T10:13:27;15.45;;;9.52;;
55633;SDS011;41504;53.162;6.788;2023-04-24T10:15:53;15.20;;;9.07;;
55633;SDS011;41504;53.162;6.788;2023-04-24T10:18:21;19.90;;;9.13;;
55633;SDS011;41504;53.162;6.788;2023-04-24T10:20:47;18.73;;;9.88;;
55633;SDS011;41504;53.162;6.788;2023-04-24T10:23:13;16.58;;;8.73;;
55633;SDS011;41504;53.162;6.788;2023-04-24T10:25:40;22.85;;;7.95;;
55633;SDS011;41504;53.162;6.788;2023-04-24T10:28:06;12.07;;;7.25;;
55633;SDS011;41504;53.162;6.788;2023-04-24T10:30:32;15.95;;;7.40;;
55633;SDS011;41504;53.162;6.788;2023-04-24T10:33:05;13.30;;;6.95;;
55633;SDS011;41504;53.162;6.788;2023-04-24T10:35:34;13.25;;;7.65;;
55633;SDS011;41504;53.162;6.788;2023-04-24T10:38:05;13.75;;;7.05;;
55633;SDS011;41504;53.162;6.788;2023-04-24T10:40:34;12.70;;;6.43;;
55633;SDS011;41504;53.162;6.788;2023-04-24T10:43:04;9.23;;;4.80;;
55633;SDS011;41504;53.162;6.788;2023-04-24T10:45:33;12.57;;;5.28;;
55633;SDS011;41504;53.162;6.788;2023-04-24T10:48:03;9.82;;;4.82;;
55633;SDS011;41504;53.162;6.788;2023-04-24T10:50:43;9.93;;;5.35;;
55633;SDS011;41504;53.162;6.788;2023-04-24T10:53:17;13.30;;;5.03;;
55633;SDS011;41504;53.162;6.788;2023-04-24T10:55:45;8.55;;;4.60;;
55633;SDS011;41504;53.162;6.788;2023-04-24T10:58:22;9.70;;;4.00;;
55633;SDS011;41504;53.162;6.788;2023-04-24T11:00:56;8.43;;;3.75;;
55633;SDS011;41504;53.162;6.788;2023-04-24T11:03:30;8.43;;;3.92;;
55633;SDS011;41504;53.162;6.788;2023-04-24T11:06:03;12.25;;;4.03;;
55633;SDS011;41504;53.162;6.788;2023-04-24T11:08:37;7.88;;;3.80;;
55633;SDS011;41504;53.162;6.788;2023-04-24T11:11:11;7.90;;;3.60;;
55633;SDS011;41504;53.162;6.788;2023-04-24T11:16:20;8.13;;;3.50;;
55633;SDS011;41504;53.162;6.788;2023-04-24T11:19:09;8.50;;;3.40;;
55633;SDS011;41504;53.162;6.788;2023-04-24T11:24:29;9.95;;;2.95;;
55633;SDS011;41504;53.162;6.788;2023-04-24T11:27:19;10.55;;;3.22;;
55633;SDS011;41504;53.162;6.788;2023-04-24T11:29:58;7.53;;;3.28;;
55633;SDS011;41504;53.162;6.788;2023-04-24T11:32:26;9.80;;;3.50;;
55633;SDS011;41504;53.162;6.788;2023-04-24T11:34:57;8.45;;;3.55;;
55633;SDS011;41504;53.162;6.788;2023-04-24T11:37:25;10.20;;;3.63;;
55633;SDS011;41504;53.162;6.788;2023-04-24T11:39:58;7.90;;;3.10;;
55633;SDS011;41504;53.162;6.788;2023-04-24T11:42:24;9.30;;;3.17;;
55633;SDS011;41504;53.162;6.788;2023-04-24T11:44:54;7.18;;;3.35;;
55633;SDS011;41504;53.162;6.788;2023-04-24T11:47:30;9.30;;;3.10;;
55633;SDS011;41504;53.162;6.788;2023-04-24T11:49:58;11.27;;;3.00;;
55633;SDS011;41504;53.162;6.788;2023-04-24T11:52:25;9.82;;;2.78;;
55633;SDS011;41504;53.162;6.788;2023-04-24T11:54:51;9.32;;;2.88;;
55633;SDS011;41504;53.162;6.788;2023-04-24T11:57:21;8.93;;;2.80;;
55633;SDS011;41504;53.162;6.788;2023-04-24T11:59:48;6.38;;;2.70;;
55633;SDS011;41504;53.162;6.788;2023-04-24T12:02:21;7.43;;;2.45;;
55633;SDS011;41504;53.162;6.788;2023-04-24T12:04:48;7.88;;;2.53;;
55633;SDS011;41504;53.162;6.788;2023-04-24T12:07:14;9.93;;;3.00;;
55633;SDS011;41504;53.162;6.788;2023-04-24T12:09:55;7.97;;;2.50;;
55633;SDS011;41504;53.162;6.788;2023-04-24T12:12:25;8.55;;;2.42;;
55633;SDS011;41504;53.162;6.788;2023-04-24T12:14:55;6.20;;;2.60;;
55633;SDS011;41504;53.162;6.788;2023-04-24T12:17:26;6.20;;;2.08;;
55633;SDS011;41504;53.162;6.788;2023-04-24T12:19:57;6.45;;;2.17;;
55633;SDS011;41504;53.162;6.788;2023-04-24T12:22:24;7.43;;;2.55;;
55633;SDS011;41504;53.162;6.788;2023-04-24T12:25:00;8.43;;;2.50;;
55633;SDS011;41504;53.162;6.788;2023-04-24T12:27:34;7.78;;;2.83;;
55633;SDS011;41504;53.162;6.788;2023-04-24T12:30:01;8.80;;;3.00;;
55633;SDS011;41504;53.162;6.788;2023-04-24T12:32:29;8.32;;;2.47;;
55633;SDS011;41504;53.162;6.788;2023-04-24T12:34:55;7.95;;;2.60;;
55633;SDS011;41504;53.162;6.788;2023-04-24T12:37:25;8.80;;;3.35;;
55633;SDS011;41504;53.162;6.788;2023-04-24T12:40:00;6.60;;;2.58;;
55633;SDS011;41504;53.162;6.788;2023-04-24T12:42:32;8.75;;;2.33;;
55633;SDS011;41504;53.162;6.788;2023-04-24T12:44:59;9.13;;;2.70;;
55633;SDS011;41504;53.162;6.788;2023-04-24T12:47:26;9.60;;;3.13;;
55633;SDS011;41504;53.162;6.788;2023-04-24T12:49:53;7.43;;;2.50;;
55633;SDS011;41504;53.162;6.788;2023-04-24T12:52:23;8.30;;;2.30;;
55633;SDS011;41504;53.162;6.788;2023-04-24T12:54:52;5.25;;;2.30;;
55633;SDS011;41504;53.162;6.788;2023-04-24T12:57:18;6.43;;;1.90;;
55633;SDS011;41504;53.162;6.788;2023-04-24T12:59:44;6.97;;;2.13;;
55633;SDS011;41504;53.162;6.788;2023-04-24T13:02:10;6.78;;;2.22;;
55633;SDS011;41504;53.162;6.788;2023-04-24T13:04:39;5.15;;;1.70;;
55633;SDS011;41504;53.162;6.788;2023-04-24T13:07:05;5.63;;;1.77;;
55633;SDS011;41504;53.162;6.788;2023-04-24T13:09:31;7.35;;;1.92;;
55633;SDS011;41504;53.162;6.788;2023-04-24T13:11:57;6.53;;;1.90;;
55633;SDS011;41504;53.162;6.788;2023-04-24T13:14:22;6.60;;;1.67;;
55633;SDS011;41504;53.162;6.788;2023-04-24T13:16:48;4.80;;;1.60;;
55633;SDS011;41504;53.162;6.788;2023-04-24T13:19:14;3.47;;;1.45;;
55633;SDS011;41504;53.162;6.788;2023-04-24T13:21:40;6.30;;;2.13;;
55633;SDS011;41504;53.162;6.788;2023-04-24T13:24:06;7.68;;;2.40;;
55633;SDS011;41504;53.162;6.788;2023-04-24T13:26:33;5.10;;;1.90;;
55633;SDS011;41504;53.162;6.788;2023-04-24T13:29:00;7.80;;;2.38;;
55633;SDS011;41504;53.162;6.788;2023-04-24T13:31:26;8.60;;;2.72;;
55633;SDS011;41504;53.162;6.788;2023-04-24T13:33:51;7.07;;;2.88;;
55633;SDS011;41504;53.162;6.788;2023-04-24T13:36:17;6.63;;;2.35;;
55633;SDS011;41504;53.162;6.788;2023-04-24T13:38:43;7.20;;;2.20;;
55633;SDS011;41504;53.162;6.788;2023-04-24T13:41:09;6.68;;;2.03;;
55633;SDS011;41504;53.162;6.788;2023-04-24T13:43:35;9.10;;;3.20;;
55633;SDS011;41504;53.162;6.788;2023-04-24T13:46:01;7.07;;;2.67;;
55633;SDS011;41504;53.162;6.788;2023-04-24T13:48:28;8.15;;;2.78;;
55633;SDS011;41504;53.162;6.788;2023-04-24T13:50:54;8.48;;;2.13;;
55633;SDS011;41504;53.162;6.788;2023-04-24T13:53:20;7.50;;;2.10;;
55633;SDS011;41504;53.162;6.788;2023-04-24T13:55:46;5.38;;;1.90;;
55633;SDS011;41504;53.162;6.788;2023-04-24T13:58:12;5.88;;;1.95;;
55633;SDS011;41504;53.162;6.788;2023-04-24T14:00:38;13.18;;;1.88;;
55633;SDS011;41504;53.162;6.788;2023-04-24T14:03:04;6.75;;;1.77;;
55633;SDS011;41504;53.162;6.788;2023-04-24T14:05:29;4.75;;;1.75;;
55633;SDS011;41504;53.162;6.788;2023-04-24T14:07:55;5.18;;;1.90;;
55633;SDS011;41504;53.162;6.788;2023-04-24T14:10:21;4.97;;;1.65;;
55633;SDS011;41504;53.162;6.788;2023-04-24T14:12:47;4.65;;;1.65;;
55633;SDS011;41504;53.162;6.788;2023-04-24T14:15:13;5.70;;;1.45;;
55633;SDS011;41504;53.162;6.788;2023-04-24T14:17:39;4.47;;;1.30;;
55633;SDS011;41504;53.162;6.788;2023-04-24T14:20:05;4.65;;;1.40;;
55633;SDS011;41504;53.162;6.788;2023-04-24T14:22:32;6.70;;;1.60;;
55633;SDS011;41504;53.162;6.788;2023-04-24T14:24:57;4.65;;;1.55;;
55633;SDS011;41504;53.162;6.788;2023-04-24T14:27:24;7.43;;;1.80;;
55633;SDS011;41504;53.162;6.788;2023-04-24T14:29:50;6.50;;;1.83;;
55633;SDS011;41504;53.162;6.788;2023-04-24T14:32:17;5.53;;;1.80;;
55633;SDS011;41504;53.162;6.788;2023-04-24T14:34:45;5.78;;;1.90;;
55633;SDS011;41504;53.162;6.788;2023-04-24T14:37:11;5.70;;;2.22;;
55633;SDS011;41504;53.162;6.788;2023-04-24T14:39:37;7.18;;;3.20;;
55633;SDS011;41504;53.162;6.788;2023-04-24T14:42:05;8.35;;;3.00;;
55633;SDS011;41504;53.162;6.788;2023-04-24T14:44:31;8.20;;;2.65;;
55633;SDS011;41504;53.162;6.788;2023-04-24T14:46:58;10.48;;;2.38;;
55633;SDS011;41504;53.162;6.788;2023-04-24T14:49:24;5.97;;;2.00;;
55633;SDS011;41504;53.162;6.788;2023-04-24T14:51:50;7.55;;;2.28;;
55633;SDS011;41504;53.162;6.788;2023-04-24T14:54:15;11.07;;;2.78;;